Time;durP1;ratioP1;P1;durP2;ratioP2;P2;SDS_P1;SDS_P2;PMS_P1;PMS_P2;Temp;Humidity;BMP_temperature;BMP_pressure;BME280_temperature;BME280_humidity;BME280_pressure;Samples;Min_cycle;Max_cycle;Signal;HPM_P1;HPM_P2
2023/05/03 00:02:15;;;;;;;;;;;;;;;;;;7366517;19;807;-60
2023/05/03 00:04:45;;;;;;;;;;;;;;;;;;7366182;19;1262;-59
2023/05/03 00:07:13;;;;;;;;;;;;;;;;;;7367905;19;780;-62
2023/05/03 00:09:41;;;;;;;;;;;;;;;;;;7367385;19;1779;-61
2023/05/03 00:12:09;;;;;;;;;;;;;;;;;;7367159;19;2062;-62
2023/05/03 00:14:37;;;;;;;;;;;;;;;;;;7366108;19;1266;-62
2023/05/03 00:17:05;;;;;;;;;;;;;;;;;;7368442;19;802;-62
2023/05/03 00:19:36;;;;;;;;;;;;;;;;;;7366751;19;1801;-63
2023/05/03 00:22:04;;;;;;;;;;;;;;;;;;7368243;19;936;-63
2023/05/03 00:24:32;;;;;;;;;;;;;;;;;;7365563;19;1305;-63
2023/05/03 00:27:00;;;;;;;;;;;;;;;;;;7368480;19;870;-62
2023/05/03 00:29:28;;;;;;;;;;;;;;;;;;7371028;19;1797;-63
2023/05/03 00:31:56;;;;;;;;;;;;;;;;;;7368831;19;1857;-63
2023/05/03 00:34:25;;;;;;;;;;;;;;;;;;7364476;19;1265;-62
2023/05/03 00:36:53;;;;;;;;;;;;;;;;;;7365897;19;859;-62
2023/05/03 00:39:21;;;;;;;;;;;;;;;;;;7367577;19;807;-62
2023/05/03 00:41:49;;;;;;;;;;;;;;;;;;7372034;19;1774;-62
2023/05/03 00:44:17;;;;;;;;;;;;;;;;;;7363975;19;1274;-62
2023/05/03 00:46:45;;;;;;;;;;;;;;;;;;7365618;19;867;-60
2023/05/03 00:49:13;;;;;;;;;;;;;;;;;;7366796;19;806;-62
2023/05/03 00:51:42;;;;;;;;;;;;;;;;;;7370346;19;1845;-64
2023/05/03 00:54:10;;;;;;;;;;;;;;;;;;7365033;19;1286;-64
2023/05/03 00:56:38;;;;;;;;;;;;;;;;;;7367101;19;846;-63
2023/05/03 00:59:06;;;;;;;;;;;;;;;;;;7370100;19;1600;-63
2023/05/03 01:01:34;;;;;;;;;;;;;;;;;;7369415;19;1788;-62
2023/05/03 01:04:03;;;;;;;;;;;;;;;;;;7364675;19;1286;-63
2023/05/03 01:06:31;;;;;;;;;;;;;;;;;;7367731;19;824;-63
2023/05/03 01:08:59;;;;;;;;;;;;;;;;;;7366834;19;792;-61
2023/05/03 01:11:28;;;;;;;;;;;;;;;;;;7366043;19;1841;-62
2023/05/03 01:13:56;;;;;;;;;;;;;;;;;;7365450;19;1270;-62
2023/05/03 01:16:24;;;;;;;;;;;;;;;;;;7366701;19;885;-60
2023/05/03 01:18:52;;;;;;;;;;;;;;;;;;7365046;19;810;-62
2023/05/03 01:21:21;;;;;;;;;;;;;;;;;;7368842;19;1532;-64
2023/05/03 01:23:49;;;;;;;;;;;;;;;;;;7366792;19;1843;-62
2023/05/03 01:26:18;;;;;;;;;;;;;;;;;;7365597;19;858;-59
2023/05/03 01:28:46;;;;;;;;;;;;;;;;;;7364405;19;933;-61
2023/05/03 01:31:14;;;;;;;;;;;;;;;;;;7367101;19;1864;-61
2023/05/03 01:33:42;;;;;;;;;;;;;;;;;;7365130;19;1270;-63
2023/05/03 01:36:10;;;;;;;;;;;;;;;;;;7366150;19;801;-59
2023/05/03 01:38:38;;;;;;;;;;;;;;;;;;7364133;19;839;-63
2023/05/03 01:41:06;;;;;;;;;;;;;;;;;;7369400;19;1803;-62
2023/05/03 01:43:35;;;;;;;;;;;;;;;;;;7363898;19;1330;-59
2023/05/03 01:46:03;;;;;;;;;;;;;;;;;;7364947;19;799;-60
2023/05/03 01:48:31;;;;;;;;;;;;;;;;;;7364076;19;1019;-63
2023/05/03 01:50:59;;;;;;;;;;;;;;;;;;7366626;19;2048;-60
2023/05/03 01:53:27;;;;;;;;;;;;;;;;;;7365361;19;1787;-58
2023/05/03 01:55:55;;;;;;;;;;;;;;;;;;7365145;19;861;-64
2023/05/03 01:58:24;;;;;;;;;;;;;;;;;;7362949;19;819;-62
2023/05/03 02:00:52;;;;;;;;;;;;;;;;;;7366803;19;2160;-63
2023/05/03 02:03:21;;;;;;;;;;;;;;;;;;7362509;19;1330;-63
2023/05/03 02:05:49;;;;;;;;;;;;;;;;;;7364719;19;830;-62
2023/05/03 02:08:17;;;;;;;;;;;;;;;;;;7363841;19;799;-62
2023/05/03 02:10:45;;;;;;;;;;;;;;;;;;7365222;19;1851;-61
2023/05/03 02:13:13;;;;;;;;;;;;;;;;;;7364342;19;1290;-60
2023/05/03 02:15:42;;;;;;;;;;;;;;;;;;7365893;19;1236;-61
2023/05/03 02:18:10;;;;;;;;;;;;;;;;;;7363427;19;882;-60
2023/05/03 02:20:38;;;;;;;;;;;;;;;;;;7364747;19;1894;-58
2023/05/03 02:23:06;;;;;;;;;;;;;;;;;;7365958;19;1358;-62
2023/05/03 02:25:34;;;;;;;;;;;;;;;;;;7369549;19;819;-61
2023/05/03 02:28:02;;;;;;;;;;;;;;;;;;7369852;19;834;-62
2023/05/03 02:30:31;;;;;;;;;;;;;;;;;;7371065;19;1855;-60
2023/05/03 02:33:00;;;;;;;;;;;;;;;;;;7367237;19;1862;-62
2023/05/03 02:35:28;;;;;;;;;;;;;;;;;;7368673;19;850;-61
2023/05/03 02:37:56;;;;;;;;;;;;;;;;;;7368515;19;849;-63
2023/05/03 02:40:24;;;;;;;;;;;;;;;;;;7370367;19;2035;-59
2023/05/03 02:42:52;;;;;;;;;;;;;;;;;;7368584;19;1215;-59
2023/05/03 02:45:25;;;;;;;;;;;;;;;;;;7368902;19;806;-62
2023/05/03 02:47:54;;;;;;;;;;;;;;;;;;7368200;19;835;-61
2023/05/03 02:50:23;;;;;;;;;;;;;;;;;;7371204;19;1821;-60
2023/05/03 02:52:51;;;;;;;;;;;;;;;;;;7367195;19;1845;-63
2023/05/03 02:55:19;;;;;;;;;;;;;;;;;;7370348;19;869;-61
2023/05/03 02:57:48;;;;;;;;;;;;;;;;;;7367415;19;823;-62
2023/05/03 03:00:20;;;;;;;;;;;;;;;;;;7371121;19;1886;-62
2023/05/03 03:02:48;;;;;;;;;;;;;;;;;;7372683;19;1873;-60
2023/05/03 03:05:16;;;;;;;;;;;;;;;;;;7369706;19;837;-60
2023/05/03 03:07:49;;;;;;;;;;;;;;;;;;7367245;19;858;-61
2023/05/03 03:10:18;;;;;;;;;;;;;;;;;;7370192;19;1844;-63
2023/05/03 03:12:46;;;;;;;;;;;;;;;;;;7367333;19;1841;-63
2023/05/03 03:15:23;;;;;;;;;;;;;;;;;;7368175;19;876;-60
2023/05/03 03:17:56;;;;;;;;;;;;;;;;;;7366527;19;852;-62
2023/05/03 03:20:24;;;;;;;;;;;;;;;;;;7369648;19;1660;-61
2023/05/03 03:22:52;;;;;;;;;;;;;;;;;;7368365;19;1287;-61
2023/05/03 03:25:20;;;;;;;;;;;;;;;;;;7369286;19;948;-61
2023/05/03 03:27:48;;;;;;;;;;;;;;;;;;7367419;19;826;-60
2023/05/03 03:30:16;;;;;;;;;;;;;;;;;;7370631;19;1771;-61
2023/05/03 03:32:57;;;;;;;;;;;;;;;;;;7364965;19;1853;-60
2023/05/03 03:35:32;;;;;;;;;;;;;;;;;;7366997;19;734;-60
2023/05/03 03:38:00;;;;;;;;;;;;;;;;;;7366577;19;810;-61
2023/05/03 03:40:28;;;;;;;;;;;;;;;;;;7369652;19;1831;-64
2023/05/03 03:42:57;;;;;;;;;;;;;;;;;;7366861;19;1282;-63
2023/05/03 03:45:26;;;;;;;;;;;;;;;;;;7367336;19;945;-61
2023/05/03 03:47:56;;;;;;;;;;;;;;;;;;7367029;19;858;-62
2023/05/03 03:50:24;;;;;;;;;;;;;;;;;;7369408;19;1862;-59
2023/05/03 03:52:53;;;;;;;;;;;;;;;;;;7368737;19;1839;-60
2023/05/03 03:55:21;;;;;;;;;;;;;;;;;;7366459;19;798;-63
2023/05/03 03:57:51;;;;;;;;;;;;;;;;;;7366135;19;832;-63
2023/05/03 04:00:19;;;;;;;;;;;;;;;;;;7368213;19;1595;-61
2023/05/03 04:02:53;;;;;;;;;;;;;;;;;;7369529;19;1812;-62
2023/05/03 04:05:21;;;;;;;;;;;;;;;;;;7371580;19;1814;-59
2023/05/03 04:07:49;;;;;;;;;;;;;;;;;;7369686;19;1811;-60
2023/05/03 04:10:18;;;;;;;;;;;;;;;;;;7371275;19;1795;-56
2023/05/03 04:12:46;;;;;;;;;;;;;;;;;;7370813;19;1927;-55
2023/05/03 04:15:16;;;;;;;;;;;;;;;;;;7367722;19;846;-59
2023/05/03 04:17:47;;;;;;;;;;;;;;;;;;7366379;19;1648;-60
2023/05/03 04:20:16;;;;;;;;;;;;;;;;;;7370974;19;2067;-54
2023/05/03 04:22:47;;;;;;;;;;;;;;;;;;7366870;19;1385;-57
2023/05/03 04:25:18;;;;;;;;;;;;;;;;;;7367148;19;822;-60
2023/05/03 04:27:53;;;;;;;;;;;;;;;;;;7366050;19;715;-62
2023/05/03 04:30:22;;;;;;;;;;;;;;;;;;7369863;19;1664;-62
2023/05/03 04:32:54;;;;;;;;;;;;;;;;;;7364208;19;1858;-59
2023/05/03 04:35:23;;;;;;;;;;;;;;;;;;7365855;19;747;-60
2023/05/03 04:37:51;;;;;;;;;;;;;;;;;;7367403;19;777;-62
2023/05/03 04:40:23;;;;;;;;;;;;;;;;;;7369550;19;2144;-60
2023/05/03 04:43:00;;;;;;;;;;;;;;;;;;7365233;19;1306;-59
2023/05/03 04:45:30;;;;;;;;;;;;;;;;;;7363460;19;752;-62
2023/05/03 04:47:59;;;;;;;;;;;;;;;;;;7364988;19;771;-62
2023/05/03 04:50:27;;;;;;;;;;;;;;;;;;7369448;19;1782;-61
2023/05/03 04:52:55;;;;;;;;;;;;;;;;;;7363025;19;1846;-58
2023/05/03 04:55:25;;;;;;;;;;;;;;;;;;7365355;19;806;-59
2023/05/03 04:57:55;;;;;;;;;;;;;;;;;;7365309;19;886;-62
2023/05/03 05:00:23;;;;;;;;;;;;;;;;;;7369425;19;1796;-61
2023/05/03 05:02:58;;;;;;;;;;;;;;;;;;7365186;19;1397;-62
2023/05/03 05:05:29;;;;;;;;;;;;;;;;;;7364675;19;837;-62
2023/05/03 05:07:59;;;;;;;;;;;;;;;;;;7364005;19;895;-61
2023/05/03 05:10:32;;;;;;;;;;;;;;;;;;7369045;19;2225;-59
2023/05/03 05:13:00;;;;;;;;;;;;;;;;;;7363318;19;1845;-62
2023/05/03 05:15:28;;;;;;;;;;;;;;;;;;7364333;19;870;-61
2023/05/03 05:17:56;;;;;;;;;;;;;;;;;;7363618;19;807;-63
2023/05/03 05:20:25;;;;;;;;;;;;;;;;;;7368315;19;1850;-60
2023/05/03 05:22:53;;;;;;;;;;;;;;;;;;7363696;19;1342;-63
2023/05/03 05:25:21;;;;;;;;;;;;;;;;;;7365118;19;858;-63
2023/05/03 05:27:49;;;;;;;;;;;;;;;;;;7362608;19;724;-64
2023/05/03 05:30:18;;;;;;;;;;;;;;;;;;7367491;19;1791;-63
2023/05/03 05:32:47;;;;;;;;;;;;;;;;;;7366113;19;1850;-62
2023/05/03 05:35:16;;;;;;;;;;;;;;;;;;7364141;19;853;-63
2023/05/03 05:37:45;;;;;;;;;;;;;;;;;;7363656;19;870;-61
2023/05/03 05:40:14;;;;;;;;;;;;;;;;;;7367420;19;1807;-62
2023/05/03 05:42:47;;;;;;;;;;;;;;;;;;7366056;19;1800;-58
2023/05/03 05:45:16;;;;;;;;;;;;;;;;;;7364871;19;854;-64
2023/05/03 05:47:45;;;;;;;;;;;;;;;;;;7363369;19;842;-59
2023/05/03 05:50:13;;;;;;;;;;;;;;;;;;7366995;19;1784;-61
2023/05/03 05:52:42;;;;;;;;;;;;;;;;;;7364136;19;1919;-63
2023/05/03 05:55:12;;;;;;;;;;;;;;;;;;7363099;19;838;-62
2023/05/03 05:57:40;;;;;;;;;;;;;;;;;;7364742;19;1835;-61
2023/05/03 06:00:13;;;;;;;;;;;;;;;;;;7367247;19;1842;-58
2023/05/03 06:02:42;;;;;;;;;;;;;;;;;;7368760;19;1759;-59
2023/05/03 06:05:13;;;;;;;;;;;;;;;;;;7363380;19;774;-62
2023/05/03 06:07:41;;;;;;;;;;;;;;;;;;7362741;19;1819;-62
2023/05/03 06:10:10;;;;;;;;;;;;;;;;;;7367302;19;2026;-61
2023/05/03 06:12:39;;;;;;;;;;;;;;;;;;7365072;19;1848;-62
2023/05/03 06:15:13;;;;;;;;;;;;;;;;;;7364012;19;806;-64
2023/05/03 06:17:41;;;;;;;;;;;;;;;;;;7362999;19;870;-65
2023/05/03 06:20:11;;;;;;;;;;;;;;;;;;7364325;19;879;-62
2023/05/03 06:22:39;;;;;;;;;;;;;;;;;;7363662;19;1286;-62
2023/05/03 06:25:08;;;;;;;;;;;;;;;;;;7363607;19;796;-63
2023/05/03 06:27:37;;;;;;;;;;;;;;;;;;7362494;19;865;-64
2023/05/03 06:30:05;;;;;;;;;;;;;;;;;;7362657;19;761;-62
2023/05/03 06:32:34;;;;;;;;;;;;;;;;;;7361644;19;1986;-62
2023/05/03 06:35:02;;;;;;;;;;;;;;;;;;7366841;19;1802;-63
2023/05/03 06:37:31;;;;;;;;;;;;;;;;;;7362417;19;829;-62
2023/05/03 06:39:59;;;;;;;;;;;;;;;;;;7361567;19;803;-62
2023/05/03 06:42:27;;;;;;;;;;;;;;;;;;7363012;19;843;-62
2023/05/03 06:45:07;;;;;;;;;;;;;;;;;;7365291;19;1798;-62
2023/05/03 06:47:35;;;;;;;;;;;;;;;;;;7364375;19;1726;-63
2023/05/03 06:50:04;;;;;;;;;;;;;;;;;;7364197;19;1850;-64
2023/05/03 06:52:32;;;;;;;;;;;;;;;;;;7361413;19;1853;-65
2023/05/03 06:55:00;;;;;;;;;;;;;;;;;;7367123;19;1531;-63
2023/05/03 06:57:28;;;;;;;;;;;;;;;;;;7363183;19;852;-60
2023/05/03 06:59:56;;;;;;;;;;;;;;;;;;7366174;19;1649;-63
2023/05/03 07:02:25;;;;;;;;;;;;;;;;;;7363164;19;853;-64
2023/05/03 07:04:53;;;;;;;;;;;;;;;;;;7361234;19;1267;-62
2023/05/03 07:07:21;;;;;;;;;;;;;;;;;;7363031;19;1751;-62
2023/05/03 07:09:49;;;;;;;;;;;;;;;;;;7366336;19;806;-61
2023/05/03 07:12:18;;;;;;;;;;;;;;;;;;7369566;19;1849;-62
2023/05/03 07:14:46;;;;;;;;;;;;;;;;;;7368040;19;1273;-62
2023/05/03 07:17:14;;;;;;;;;;;;;;;;;;7370353;19;831;-63
2023/05/03 07:19:42;;;;;;;;;;;;;;;;;;7373096;19;1689;-67
2023/05/03 07:22:11;;;;;;;;;;;;;;;;;;7369872;19;813;-65
2023/05/03 07:24:39;;;;;;;;;;;;;;;;;;7366998;19;1378;-65
2023/05/03 07:27:07;;;;;;;;;;;;;;;;;;7373540;19;1624;-63
2023/05/03 07:29:35;;;;;;;;;;;;;;;;;;7369546;19;814;-63
2023/05/03 07:32:03;;;;;;;;;;;;;;;;;;7372891;19;1741;-64
2023/05/03 07:34:31;;;;;;;;;;;;;;;;;;7370471;19;1694;-63
2023/05/03 07:36:59;;;;;;;;;;;;;;;;;;7372219;19;1824;-63
2023/05/03 07:39:27;;;;;;;;;;;;;;;;;;7367103;19;866;-63
2023/05/03 07:41:56;;;;;;;;;;;;;;;;;;7369608;19;811;-61
2023/05/03 07:44:24;;;;;;;;;;;;;;;;;;7370065;19;1788;-63
2023/05/03 07:46:52;;;;;;;;;;;;;;;;;;7369319;19;758;-65
2023/05/03 07:49:20;;;;;;;;;;;;;;;;;;7371110;19;1811;-62
2023/05/03 07:51:49;;;;;;;;;;;;;;;;;;7369017;19;719;-64
2023/05/03 07:54:17;;;;;;;;;;;;;;;;;;7368495;19;2109;-63
2023/05/03 07:56:45;;;;;;;;;;;;;;;;;;7369656;19;849;-62
2023/05/03 07:59:13;;;;;;;;;;;;;;;;;;7370041;19;1796;-61
2023/05/03 08:01:41;;;;;;;;;;;;;;;;;;7368910;19;826;-65
2023/05/03 08:04:10;;;;;;;;;;;;;;;;;;7366991;19;1289;-66
2023/05/03 08:06:38;;;;;;;;;;;;;;;;;;7370001;19;2056;-67
2023/05/03 08:09:06;;;;;;;;;;;;;;;;;;7367041;19;805;-64
2023/05/03 08:11:34;;;;;;;;;;;;;;;;;;7371375;19;1764;-64
2023/05/03 08:14:02;;;;;;;;;;;;;;;;;;7366705;19;1862;-64
2023/05/03 08:16:30;;;;;;;;;;;;;;;;;;7372190;19;1649;-63
2023/05/03 08:18:58;;;;;;;;;;;;;;;;;;7371886;19;1869;-63
2023/05/03 08:21:27;;;;;;;;;;;;;;;;;;7367476;19;802;-61
2023/05/03 08:23:56;;;;;;;;;;;;;;;;;;7366307;19;1286;-61
2023/05/03 08:26:24;;;;;;;;;;;;;;;;;;7368279;19;799;-60
2023/05/03 08:28:53;;;;;;;;;;;;;;;;;;7367244;19;850;-63
2023/05/03 08:31:21;;;;;;;;;;;;;;;;;;7368175;19;819;-63
2023/05/03 08:33:49;;;;;;;;;;;;;;;;;;7365866;19;1842;-62
2023/05/03 08:36:17;;;;;;;;;;;;;;;;;;7367761;19;910;-57
2023/05/03 08:38:45;;;;;;;;;;;;;;;;;;7366980;19;728;-61
2023/05/03 08:41:14;;;;;;;;;;;;;;;;;;7368096;19;1322;-63
2023/05/03 08:43:42;;;;;;;;;;;;;;;;;;7366424;19;1267;-59
2023/05/03 08:46:10;;;;;;;;;;;;;;;;;;7368346;19;802;-62
2023/05/03 08:48:38;;;;;;;;;;;;;;;;;;7367199;19;818;-64
2023/05/03 08:51:06;;;;;;;;;;;;;;;;;;7368068;19;813;-63
2023/05/03 08:53:34;;;;;;;;;;;;;;;;;;7365981;19;1849;-63
2023/05/03 08:56:03;;;;;;;;;;;;;;;;;;7367527;19;766;-62
2023/05/03 08:58:31;;;;;;;;;;;;;;;;;;7366325;19;800;-63
2023/05/03 09:00:59;;;;;;;;;;;;;;;;;;7366467;19;806;-63
2023/05/03 09:03:27;;;;;;;;;;;;;;;;;;7365340;19;1274;-62
2023/05/03 09:06:00;;;;;;;;;;;;;;;;;;7367083;19;795;-61
2023/05/03 09:08:28;;;;;;;;;;;;;;;;;;7366385;19;698;-63
2023/05/03 09:10:57;;;;;;;;;;;;;;;;;;7367507;19;864;-65
2023/05/03 09:13:25;;;;;;;;;;;;;;;;;;7364499;19;1838;-61
2023/05/03 09:15:53;;;;;;;;;;;;;;;;;;7367327;19;826;-59
2023/05/03 09:18:24;;;;;;;;;;;;;;;;;;7363967;19;1225;-63
2023/05/03 09:20:55;;;;;;;;;;;;;;;;;;7366793;19;843;-63
2023/05/03 09:23:23;;;;;;;;;;;;;;;;;;7365058;19;1348;-62
2023/05/03 09:25:51;;;;;;;;;;;;;;;;;;7366647;19;817;-62
2023/05/03 09:28:19;;;;;;;;;;;;;;;;;;7366493;19;765;-62
2023/05/03 09:30:48;;;;;;;;;;;;;;;;;;7366766;19;807;-63
2023/05/03 09:33:20;;;;;;;;;;;;;;;;;;7363649;19;1849;-60
2023/05/03 09:35:48;;;;;;;;;;;;;;;;;;7367039;19;764;-63
2023/05/03 09:38:16;;;;;;;;;;;;;;;;;;7365656;19;778;-61
2023/05/03 09:40:44;;;;;;;;;;;;;;;;;;7365949;19;742;-63
2023/05/03 09:43:15;;;;;;;;;;;;;;;;;;7365728;19;1334;-66
2023/05/03 09:45:43;;;;;;;;;;;;;;;;;;7366487;19;710;-62
2023/05/03 09:48:11;;;;;;;;;;;;;;;;;;7365143;19;826;-64
2023/05/03 09:50:39;;;;;;;;;;;;;;;;;;7366195;19;786;-63
2023/05/03 09:53:07;;;;;;;;;;;;;;;;;;7364743;19;1847;-63
2023/05/03 09:55:35;;;;;;;;;;;;;;;;;;7367695;19;1942;-60
2023/05/03 09:58:06;;;;;;;;;;;;;;;;;;7367024;19;2098;-60
2023/05/03 10:00:34;;;;;;;;;;;;;;;;;;7369659;19;1814;-61
2023/05/03 10:03:02;;;;;;;;;;;;;;;;;;7370847;19;1438;-63
2023/05/03 10:05:30;;;;;;;;;;;;;;;;;;7370233;19;1799;-62
2023/05/03 10:07:59;;;;;;;;;;;;;;;;;;7369569;19;1948;-60
2023/05/03 10:10:27;;;;;;;;;;;;;;;;;;7369096;19;1803;-62
2023/05/03 10:12:55;;;;;;;;;;;;;;;;;;7368374;19;1842;-63
2023/05/03 10:15:24;;;;;;;;;;;;;;;;;;7369448;19;1795;-61
2023/05/03 10:17:53;;;;;;;;;;;;;;;;;;7366479;19;1924;-64
2023/05/03 10:20:21;;;;;;;;;;;;;;;;;;7365713;19;2056;-61
2023/05/03 10:22:49;;;;;;;;;;;;;;;;;;7364506;19;1345;-67
2023/05/03 10:25:18;;;;;;;;;;;;;;;;;;7364887;19;1779;-64
2023/05/03 10:27:46;;;;;;;;;;;;;;;;;;7368649;19;1771;-64
2023/05/03 10:30:14;;;;;;;;;;;;;;;;;;7364770;19;822;-63
2023/05/03 10:32:43;;;;;;;;;;;;;;;;;;7363873;19;1336;-63
2023/05/03 10:35:11;;;;;;;;;;;;;;;;;;7361888;19;1856;-64
2023/05/03 10:37:39;;;;;;;;;;;;;;;;;;7363804;19;835;-64
2023/05/03 10:40:08;;;;;;;;;;;;;;;;;;7364869;19;855;-63
2023/05/03 10:42:36;;;;;;;;;;;;;;;;;;7364449;19;1317;-63
2023/05/03 10:45:06;;;;;;;;;;;;;;;;;;7370373;19;1749;-62
2023/05/03 10:47:34;;;;;;;;;;;;;;;;;;7374728;19;1856;-64
2023/05/03 10:50:03;;;;;;;;;;;;;;;;;;7370981;19;837;-63
2023/05/03 10:52:31;;;;;;;;;;;;;;;;;;7370596;19;751;-63
2023/05/03 10:54:59;;;;;;;;;;;;;;;;;;7369136;19;1875;-64
2023/05/03 10:57:27;;;;;;;;;;;;;;;;;;7371022;19;870;-63
2023/05/03 10:59:55;;;;;;;;;;;;;;;;;;7368693;19;839;-63
2023/05/03 11:02:23;;;;;;;;;;;;;;;;;;7370437;19;827;-62
2023/05/03 11:04:51;;;;;;;;;;;;;;;;;;7368877;19;1271;-62
2023/05/03 11:07:20;;;;;;;;;;;;;;;;;;7370800;19;865;-62
2023/05/03 11:09:48;;;;;;;;;;;;;;;;;;7369741;19;834;-62
2023/05/03 11:12:16;;;;;;;;;;;;;;;;;;7370273;19;806;-63
2023/05/03 11:14:44;;;;;;;;;;;;;;;;;;7368358;19;1861;-62
2023/05/03 11:17:12;;;;;;;;;;;;;;;;;;7374255;19;1484;-62
2023/05/03 11:19:41;;;;;;;;;;;;;;;;;;7372411;19;1777;-63
2023/05/03 11:22:09;;;;;;;;;;;;;;;;;;7372125;19;1755;-63
2023/05/03 11:24:37;;;;;;;;;;;;;;;;;;7367392;19;1343;-63
2023/05/03 11:27:05;;;;;;;;;;;;;;;;;;7373705;19;1906;-65
2023/05/03 11:29:33;;;;;;;;;;;;;;;;;;7372348;19;1778;-63
2023/05/03 11:32:01;;;;;;;;;;;;;;;;;;7369430;19;802;-64
2023/05/03 11:34:30;;;;;;;;;;;;;;;;;;7367661;19;1869;-63
2023/05/03 11:36:58;;;;;;;;;;;;;;;;;;7370075;19;892;-63
2023/05/03 11:39:26;;;;;;;;;;;;;;;;;;7369278;19;775;-63
2023/05/03 11:41:54;;;;;;;;;;;;;;;;;;7369453;19;798;-64
2023/05/03 11:44:22;;;;;;;;;;;;;;;;;;7367411;19;1274;-63
2023/05/03 11:46:51;;;;;;;;;;;;;;;;;;7369814;19;739;-62
2023/05/03 11:49:19;;;;;;;;;;;;;;;;;;7368497;19;774;-63
2023/05/03 11:51:47;;;;;;;;;;;;;;;;;;7370160;19;813;-64
2023/05/03 11:54:15;;;;;;;;;;;;;;;;;;7367351;19;1854;-63
2023/05/03 11:56:44;;;;;;;;;;;;;;;;;;7372371;19;1700;-62
2023/05/03 11:59:13;;;;;;;;;;;;;;;;;;7371979;19;2061;-61
2023/05/03 12:01:41;;;;;;;;;;;;;;;;;;7369468;19;920;-64
2023/05/03 12:04:09;;;;;;;;;;;;;;;;;;7367050;19;1272;-65
2023/05/03 12:06:38;;;;;;;;;;;;;;;;;;7369053;19;964;-63
2023/05/03 12:09:06;;;;;;;;;;;;;;;;;;7371651;19;2091;-64
2023/05/03 12:11:34;;;;;;;;;;;;;;;;;;7369717;19;861;-63
2023/05/03 12:14:02;;;;;;;;;;;;;;;;;;7366782;19;1833;-63
2023/05/03 12:16:30;;;;;;;;;;;;;;;;;;7368639;19;877;-61
2023/05/03 12:19:01;;;;;;;;;;;;;;;;;;7370555;19;1842;-61
2023/05/03 12:21:29;;;;;;;;;;;;;;;;;;7372996;19;2017;-63
2023/05/03 12:23:57;;;;;;;;;;;;;;;;;;7368421;19;1693;-64
2023/05/03 12:26:26;;;;;;;;;;;;;;;;;;7369392;19;846;-62
2023/05/03 12:28:55;;;;;;;;;;;;;;;;;;7366928;19;843;-62
2023/05/03 12:31:23;;;;;;;;;;;;;;;;;;7369188;19;797;-63
2023/05/03 12:33:51;;;;;;;;;;;;;;;;;;7367142;19;1841;-64
2023/05/03 12:36:20;;;;;;;;;;;;;;;;;;7370889;19;1790;-63
2023/05/03 12:38:50;;;;;;;;;;;;;;;;;;7368217;19;891;-61
2023/05/03 12:41:18;;;;;;;;;;;;;;;;;;7369555;19;818;-64
2023/05/03 12:43:46;;;;;;;;;;;;;;;;;;7367555;19;1284;-62
2023/05/03 12:46:15;;;;;;;;;;;;;;;;;;7369348;19;863;-63
2023/05/03 12:48:43;;;;;;;;;;;;;;;;;;7368318;19;754;-61
2023/05/03 12:51:11;;;;;;;;;;;;;;;;;;7369205;19;799;-62
2023/05/03 12:53:39;;;;;;;;;;;;;;;;;;7367663;19;1353;-63
2023/05/03 12:56:07;;;;;;;;;;;;;;;;;;7368718;19;810;-62
2023/05/03 12:58:35;;;;;;;;;;;;;;;;;;7368010;19;826;-61
2023/05/03 13:01:03;;;;;;;;;;;;;;;;;;7368452;19;787;-62
2023/05/03 13:03:32;;;;;;;;;;;;;;;;;;7365860;19;1250;-63
2023/05/03 13:06:00;;;;;;;;;;;;;;;;;;7367608;19;801;-64
2023/05/03 13:08:28;;;;;;;;;;;;;;;;;;7364646;19;815;-60
2023/05/03 13:10:56;;;;;;;;;;;;;;;;;;7367456;19;865;-68
2023/05/03 13:13:25;;;;;;;;;;;;;;;;;;7369708;19;1765;-64
2023/05/03 13:15:53;;;;;;;;;;;;;;;;;;7365697;19;1859;-59
2023/05/03 13:18:21;;;;;;;;;;;;;;;;;;7366944;19;857;-64
2023/05/03 13:20:50;;;;;;;;;;;;;;;;;;7368215;19;829;-60
2023/05/03 13:23:18;;;;;;;;;;;;;;;;;;7365720;19;1361;-63
2023/05/03 13:25:46;;;;;;;;;;;;;;;;;;7367555;19;729;-62
2023/05/03 13:28:19;;;;;;;;;;;;;;;;;;7365751;19;846;-63
2023/05/03 13:30:47;;;;;;;;;;;;;;;;;;7368433;19;884;-61
2023/05/03 13:33:15;;;;;;;;;;;;;;;;;;7365401;19;1216;-62
2023/05/03 13:35:43;;;;;;;;;;;;;;;;;;7364003;19;1835;-62
2023/05/03 13:38:11;;;;;;;;;;;;;;;;;;7365254;19;867;-62
2023/05/03 13:40:40;;;;;;;;;;;;;;;;;;7366375;19;814;-62
2023/05/03 13:43:08;;;;;;;;;;;;;;;;;;7369394;19;1569;-62
2023/05/03 13:45:36;;;;;;;;;;;;;;;;;;7369115;19;1804;-63
2023/05/03 13:48:05;;;;;;;;;;;;;;;;;;7367972;19;2022;-63
2023/05/03 13:50:34;;;;;;;;;;;;;;;;;;7366160;19;779;-63
2023/05/03 13:53:02;;;;;;;;;;;;;;;;;;7368846;19;1752;-63
2023/05/03 13:55:30;;;;;;;;;;;;;;;;;;7362099;19;1841;-62
2023/05/03 13:57:58;;;;;;;;;;;;;;;;;;7364701;19;971;-62
2023/05/03 14:00:27;;;;;;;;;;;;;;;;;;7365572;19;857;-63
2023/05/03 14:02:55;;;;;;;;;;;;;;;;;;7364778;19;1278;-62
2023/05/03 14:05:24;;;;;;;;;;;;;;;;;;7365412;19;1798;-63
2023/05/03 14:07:52;;;;;;;;;;;;;;;;;;7365150;19;1794;-64
2023/05/03 14:10:20;;;;;;;;;;;;;;;;;;7366070;19;782;-64
2023/05/03 14:12:48;;;;;;;;;;;;;;;;;;7365464;19;1349;-62
2023/05/03 14:15:17;;;;;;;;;;;;;;;;;;7363475;19;1834;-63
2023/05/03 14:17:45;;;;;;;;;;;;;;;;;;7371761;19;2096;-61
2023/05/03 14:20:16;;;;;;;;;;;;;;;;;;7378520;19;826;-63
2023/05/03 14:22:44;;;;;;;;;;;;;;;;;;7382373;19;1841;-60
2023/05/03 14:25:12;;;;;;;;;;;;;;;;;;7380185;19;822;-58
2023/05/03 14:27:40;;;;;;;;;;;;;;;;;;7382457;19;2043;-59
2023/05/03 14:30:09;;;;;;;;;;;;;;;;;;7381810;19;1795;-66
2023/05/03 14:32:37;;;;;;;;;;;;;;;;;;7382450;19;1821;-63
2023/05/03 14:35:05;;;;;;;;;;;;;;;;;;7377823;19;1861;-63
2023/05/03 14:37:33;;;;;;;;;;;;;;;;;;7380262;19;1574;-63
2023/05/03 14:40:02;;;;;;;;;;;;;;;;;;7379089;19;1560;-63
2023/05/03 14:42:30;;;;;;;;;;;;;;;;;;7380994;19;1787;-62
2023/05/03 14:44:58;;;;;;;;;;;;;;;;;;7375471;19;1259;-62
2023/05/03 14:47:27;;;;;;;;;;;;;;;;;;7379445;19;1772;-65
2023/05/03 14:49:55;;;;;;;;;;;;;;;;;;7378916;19;1624;-63
2023/05/03 14:52:23;;;;;;;;;;;;;;;;;;7377833;19;830;-65
2023/05/03 14:54:52;;;;;;;;;;;;;;;;;;7374309;19;1843;-65
2023/05/03 14:57:20;;;;;;;;;;;;;;;;;;7377737;19;777;-62
2023/05/03 14:59:49;;;;;;;;;;;;;;;;;;7377033;19;856;-62
2023/05/03 15:02:18;;;;;;;;;;;;;;;;;;7377962;19;771;-61
2023/05/03 15:04:46;;;;;;;;;;;;;;;;;;7374925;19;1333;-63
2023/05/03 15:07:14;;;;;;;;;;;;;;;;;;7377190;19;787;-63
2023/05/03 15:09:43;;;;;;;;;;;;;;;;;;7375805;19;994;-63
2023/05/03 15:12:11;;;;;;;;;;;;;;;;;;7377244;19;793;-65
2023/05/03 15:14:39;;;;;;;;;;;;;;;;;;7374514;19;1860;-67
2023/05/03 15:17:08;;;;;;;;;;;;;;;;;;7377069;19;775;-65
2023/05/03 15:19:36;;;;;;;;;;;;;;;;;;7375027;19;846;-65
2023/05/03 15:22:04;;;;;;;;;;;;;;;;;;7376085;19;794;-61
2023/05/03 15:24:32;;;;;;;;;;;;;;;;;;7373917;19;1340;-64
2023/05/03 15:27:01;;;;;;;;;;;;;;;;;;7376006;19;814;-62
2023/05/03 15:29:29;;;;;;;;;;;;;;;;;;7371750;19;952;-62
2023/05/03 15:31:57;;;;;;;;;;;;;;;;;;7369202;19;782;-62
2023/05/03 15:34:25;;;;;;;;;;;;;;;;;;7367067;19;1278;-60
2023/05/03 15:36:54;;;;;;;;;;;;;;;;;;7366771;19;1865;-61
2023/05/03 15:39:23;;;;;;;;;;;;;;;;;;7368704;19;870;-63
2023/05/03 15:41:51;;;;;;;;;;;;;;;;;;7369051;19;835;-64
2023/05/03 15:44:19;;;;;;;;;;;;;;;;;;7368125;19;1287;-61
2023/05/03 15:46:48;;;;;;;;;;;;;;;;;;7369326;19;887;-62
2023/05/03 15:49:16;;;;;;;;;;;;;;;;;;7367328;19;841;-64
2023/05/03 15:51:44;;;;;;;;;;;;;;;;;;7369075;19;816;-63
2023/05/03 15:54:12;;;;;;;;;;;;;;;;;;7367474;19;1273;-63
2023/05/03 15:56:40;;;;;;;;;;;;;;;;;;7366778;19;1841;-63
2023/05/03 15:59:08;;;;;;;;;;;;;;;;;;7368495;19;837;-61
2023/05/03 16:01:37;;;;;;;;;;;;;;;;;;7369524;19;849;-60
2023/05/03 16:04:06;;;;;;;;;;;;;;;;;;7367375;19;1282;-63
2023/05/03 16:06:34;;;;;;;;;;;;;;;;;;7369756;19;777;-57
2023/05/03 16:09:02;;;;;;;;;;;;;;;;;;7368773;19;799;-60
2023/05/03 16:11:30;;;;;;;;;;;;;;;;;;7369799;19;856;-58
2023/05/03 16:13:59;;;;;;;;;;;;;;;;;;7367311;19;1309;-59
2023/05/03 16:16:27;;;;;;;;;;;;;;;;;;7367083;19;1838;-56
2023/05/03 16:18:55;;;;;;;;;;;;;;;;;;7367884;19;814;-57
2023/05/03 16:21:23;;;;;;;;;;;;;;;;;;7367671;19;860;-62
2023/05/03 16:23:53;;;;;;;;;;;;;;;;;;7366575;19;1340;-63
2023/05/03 16:26:21;;;;;;;;;;;;;;;;;;7367848;19;830;-63
2023/05/03 16:28:49;;;;;;;;;;;;;;;;;;7366852;19;806;-61
2023/05/03 16:31:18;;;;;;;;;;;;;;;;;;7367996;19;854;-60
2023/05/03 16:33:46;;;;;;;;;;;;;;;;;;7367200;19;1278;-61
2023/05/03 16:36:14;;;;;;;;;;;;;;;;;;7366491;19;1841;-63
2023/05/03 16:38:42;;;;;;;;;;;;;;;;;;7367574;19;791;-63
2023/05/03 16:41:10;;;;;;;;;;;;;;;;;;7365740;19;827;-63
2023/05/03 16:43:38;;;;;;;;;;;;;;;;;;7365437;19;1236;-60
2023/05/03 16:46:07;;;;;;;;;;;;;;;;;;7367758;19;807;-60
2023/05/03 16:48:35;;;;;;;;;;;;;;;;;;7366466;19;847;-58
2023/05/03 16:51:03;;;;;;;;;;;;;;;;;;7367490;19;798;-57
2023/05/03 16:53:31;;;;;;;;;;;;;;;;;;7365934;19;1282;-62
2023/05/03 16:56:00;;;;;;;;;;;;;;;;;;7365671;19;1846;-64
2023/05/03 16:58:28;;;;;;;;;;;;;;;;;;7367114;19;834;-61
2023/05/03 17:00:56;;;;;;;;;;;;;;;;;;7367365;19;854;-63
2023/05/03 17:03:24;;;;;;;;;;;;;;;;;;7366215;19;1348;-64
2023/05/03 17:05:52;;;;;;;;;;;;;;;;;;7366743;19;787;-64
2023/05/03 17:08:21;;;;;;;;;;;;;;;;;;7365911;19;844;-65
2023/05/03 17:10:49;;;;;;;;;;;;;;;;;;7366505;19;811;-63
2023/05/03 17:13:17;;;;;;;;;;;;;;;;;;7364228;19;1347;-63
2023/05/03 17:15:45;;;;;;;;;;;;;;;;;;7365746;19;1837;-63
2023/05/03 17:18:13;;;;;;;;;;;;;;;;;;7365246;19;802;-63
2023/05/03 17:20:41;;;;;;;;;;;;;;;;;;7366764;19;874;-64